sensor_id;sensor_type;location;lat;lon;timestamp;temperature;humidity
736;DHT22;352;48.626;9.238;2023-07-16T00:00:12;22.40;99.90
736;DHT22;352;48.626;9.238;2023-07-16T00:02:40;22.40;99.90
736;DHT22;352;48.626;9.238;2023-07-16T00:05:07;22.30;99.90
736;DHT22;352;48.626;9.238;2023-07-16T00:07:34;22.30;99.90
736;DHT22;352;48.626;9.238;2023-07-16T00:10:03;22.30;99.90
736;DHT22;352;48.626;9.238;2023-07-16T00:12:30;22.30;99.90
736;DHT22;352;48.626;9.238;2023-07-16T00:14:57;22.30;99.90
736;DHT22;352;48.626;9.238;2023-07-16T00:17:23;22.20;99.90
736;DHT22;352;48.626;9.238;2023-07-16T00:19:50;22.20;99.90
736;DHT22;352;48.626;9.238;2023-07-16T00:22:17;22.20;99.90
736;DHT22;352;48.626;9.238;2023-07-16T00:24:43;22.20;99.90
736;DHT22;352;48.626;9.238;2023-07-16T00:27:11;22.10;99.90
736;DHT22;352;48.626;9.238;2023-07-16T00:29:38;22.10;99.90
736;DHT22;352;48.626;9.238;2023-07-16T00:32:05;22.00;99.90
736;DHT22;352;48.626;9.238;2023-07-16T00:34:32;22.00;99.90
736;DHT22;352;48.626;9.238;2023-07-16T00:36:59;22.00;99.90
736;DHT22;352;48.626;9.238;2023-07-16T00:39:27;22.00;99.90
736;DHT22;352;48.626;9.238;2023-07-16T00:41:54;21.90;99.90
736;DHT22;352;48.626;9.238;2023-07-16T00:44:22;22.00;99.90
736;DHT22;352;48.626;9.238;2023-07-16T00:46:49;22.00;99.90
736;DHT22;352;48.626;9.238;2023-07-16T00:49:16;22.00;99.90
736;DHT22;352;48.626;9.238;2023-07-16T00:51:43;21.90;99.90
736;DHT22;352;48.626;9.238;2023-07-16T00:54:10;21.90;99.90
736;DHT22;352;48.626;9.238;2023-07-16T00:56:37;21.90;99.90
736;DHT22;352;48.626;9.238;2023-07-16T00:59:05;22.00;99.90
736;DHT22;352;48.626;9.238;2023-07-16T01:01:33;22.00;99.90
736;DHT22;352;48.626;9.238;2023-07-16T01:04:00;22.00;99.90
736;DHT22;352;48.626;9.238;2023-07-16T01:06:33;21.90;99.90
736;DHT22;352;48.626;9.238;2023-07-16T01:09:03;21.90;99.90
736;DHT22;352;48.626;9.238;2023-07-16T01:11:31;21.80;99.90
736;DHT22;352;48.626;9.238;2023-07-16T01:14:01;21.90;99.90
736;DHT22;352;48.626;9.238;2023-07-16T01:16:28;21.80;99.90
736;DHT22;352;48.626;9.238;2023-07-16T01:18:57;21.90;99.90
736;DHT22;352;48.626;9.238;2023-07-16T01:21:27;21.90;99.90
736;DHT22;352;48.626;9.238;2023-07-16T01:24:19;21.80;99.90
736;DHT22;352;48.626;9.238;2023-07-16T01:27:09;21.90;99.90
736;DHT22;352;48.626;9.238;2023-07-16T01:29:42;21.80;99.90
736;DHT22;352;48.626;9.238;2023-07-16T01:32:11;21.80;99.90
736;DHT22;352;48.626;9.238;2023-07-16T01:34:39;21.80;99.90
736;DHT22;352;48.626;9.238;2023-07-16T01:37:07;21.80;99.90
736;DHT22;352;48.626;9.238;2023-07-16T01:39:33;21.80;99.90
736;DHT22;352;48.626;9.238;2023-07-16T01:42:00;21.90;99.90
736;DHT22;352;48.626;9.238;2023-07-16T01:44:27;21.80;99.90
736;DHT22;352;48.626;9.238;2023-07-16T01:47:08;21.80;99.90
736;DHT22;352;48.626;9.238;2023-07-16T01:49:34;21.80;99.90
736;DHT22;352;48.626;9.238;2023-07-16T01:52:02;21.80;99.90
736;DHT22;352;48.626;9.238;2023-07-16T01:54:30;21.80;99.90
736;DHT22;352;48.626;9.238;2023-07-16T01:56:56;21.80;99.90
736;DHT22;352;48.626;9.238;2023-07-16T01:59:23;21.80;99.90
736;DHT22;352;48.626;9.238;2023-07-16T02:01:50;21.80;99.90
736;DHT22;352;48.626;9.238;2023-07-16T02:04:18;21.80;99.90
736;DHT22;352;48.626;9.238;2023-07-16T02:06:44;21.70;99.90
736;DHT22;352;48.626;9.238;2023-07-16T02:09:13;21.60;99.90
736;DHT22;352;48.626;9.238;2023-07-16T02:11:40;21.60;99.90
736;DHT22;352;48.626;9.238;2023-07-16T02:14:07;21.60;99.90
736;DHT22;352;48.626;9.238;2023-07-16T02:16:33;21.50;99.90
736;DHT22;352;48.626;9.238;2023-07-16T02:19:00;21.50;99.90
736;DHT22;352;48.626;9.238;2023-07-16T02:21:28;21.50;99.90
736;DHT22;352;48.626;9.238;2023-07-16T02:23:55;21.40;99.90
736;DHT22;352;48.626;9.238;2023-07-16T02:26:21;21.40;99.90
736;DHT22;352;48.626;9.238;2023-07-16T02:28:48;21.40;99.90
736;DHT22;352;48.626;9.238;2023-07-16T02:31:15;21.40;99.90
736;DHT22;352;48.626;9.238;2023-07-16T02:33:42;21.30;99.90
736;DHT22;352;48.626;9.238;2023-07-16T02:36:08;21.30;99.90
736;DHT22;352;48.626;9.238;2023-07-16T02:38:36;21.30;99.90
736;DHT22;352;48.626;9.238;2023-07-16T02:41:03;21.30;99.90
736;DHT22;352;48.626;9.238;2023-07-16T02:43:30;21.30;99.90
736;DHT22;352;48.626;9.238;2023-07-16T02:45:56;21.20;99.90
736;DHT22;352;48.626;9.238;2023-07-16T02:48:23;21.20;99.90
736;DHT22;352;48.626;9.238;2023-07-16T02:50:50;21.10;99.90
736;DHT22;352;48.626;9.238;2023-07-16T02:53:17;21.10;99.90
736;DHT22;352;48.626;9.238;2023-07-16T02:55:45;21.00;99.90
736;DHT22;352;48.626;9.238;2023-07-16T02:58:12;20.90;99.90
736;DHT22;352;48.626;9.238;2023-07-16T03:00:39;20.80;99.90
736;DHT22;352;48.626;9.238;2023-07-16T03:03:06;20.70;99.90
736;DHT22;352;48.626;9.238;2023-07-16T03:05:32;20.60;99.90
736;DHT22;352;48.626;9.238;2023-07-16T03:07:59;20.50;99.90
736;DHT22;352;48.626;9.238;2023-07-16T03:10:26;20.50;99.90
736;DHT22;352;48.626;9.238;2023-07-16T03:12:54;20.40;99.90
736;DHT22;352;48.626;9.238;2023-07-16T03:15:21;20.30;99.90
736;DHT22;352;48.626;9.238;2023-07-16T03:17:47;20.30;99.90
736;DHT22;352;48.626;9.238;2023-07-16T03:20:14;20.30;99.90
736;DHT22;352;48.626;9.238;2023-07-16T03:22:41;20.30;99.90
736;DHT22;352;48.626;9.238;2023-07-16T03:25:08;20.30;99.90
736;DHT22;352;48.626;9.238;2023-07-16T03:27:35;20.30;99.90
736;DHT22;352;48.626;9.238;2023-07-16T03:30:03;20.30;99.90
736;DHT22;352;48.626;9.238;2023-07-16T03:32:30;20.20;99.90
736;DHT22;352;48.626;9.238;2023-07-16T03:34:57;20.10;99.90
736;DHT22;352;48.626;9.238;2023-07-16T03:37:24;20.00;99.90
736;DHT22;352;48.626;9.238;2023-07-16T03:39:51;20.00;99.90
736;DHT22;352;48.626;9.238;2023-07-16T03:42:17;20.00;99.90
736;DHT22;352;48.626;9.238;2023-07-16T03:44:44;20.10;99.90
736;DHT22;352;48.626;9.238;2023-07-16T03:47:12;20.10;99.90
736;DHT22;352;48.626;9.238;2023-07-16T03:49:39;20.10;99.90
736;DHT22;352;48.626;9.238;2023-07-16T03:52:06;20.10;99.90
736;DHT22;352;48.626;9.238;2023-07-16T03:54:33;20.10;99.90
736;DHT22;352;48.626;9.238;2023-07-16T03:57:00;20.10;99.90
736;DHT22;352;48.626;9.238;2023-07-16T03:59:26;20.10;99.90
736;DHT22;352;48.626;9.238;2023-07-16T04:01:53;20.10;99.90
736;DHT22;352;48.626;9.238;2023-07-16T04:04:21;20.10;99.90
736;DHT22;352;48.626;9.238;2023-07-16T04:06:48;20.10;99.90
736;DHT22;352;48.626;9.238;2023-07-16T04:09:14;20.10;99.90
736;DHT22;352;48.626;9.238;2023-07-16T04:11:41;20.20;99.90
736;DHT22;352;48.626;9.238;2023-07-16T04:14:08;20.10;99.90
736;DHT22;352;48.626;9.238;2023-07-16T04:16:35;20.00;99.90
736;DHT22;352;48.626;9.238;2023-07-16T04:19:01;20.00;99.90
736;DHT22;352;48.626;9.238;2023-07-16T04:21:29;20.00;99.90
736;DHT22;352;48.626;9.238;2023-07-16T04:23:56;20.00;99.90
736;DHT22;352;48.626;9.238;2023-07-16T04:26:23;20.00;99.90
736;DHT22;352;48.626;9.238;2023-07-16T04:28:50;20.00;99.90
736;DHT22;352;48.626;9.238;2023-07-16T04:31:16;20.00;99.90
736;DHT22;352;48.626;9.238;2023-07-16T04:33:43;20.10;99.90
736;DHT22;352;48.626;9.238;2023-07-16T04:36:10;20.10;99.90
736;DHT22;352;48.626;9.238;2023-07-16T04:38:38;20.10;99.90
736;DHT22;352;48.626;9.238;2023-07-16T04:41:04;20.10;99.90
736;DHT22;352;48.626;9.238;2023-07-16T04:43:31;20.10;99.90
736;DHT22;352;48.626;9.238;2023-07-16T04:45:58;20.10;99.90
736;DHT22;352;48.626;9.238;2023-07-16T04:48:25;20.10;99.90
736;DHT22;352;48.626;9.238;2023-07-16T04:50:52;20.10;99.90
736;DHT22;352;48.626;9.238;2023-07-16T04:53:19;20.20;99.90
736;DHT22;352;48.626;9.238;2023-07-16T04:55:47;20.20;99.90
736;DHT22;352;48.626;9.238;2023-07-16T04:58:14;20.20;99.90
736;DHT22;352;48.626;9.238;2023-07-16T05:00:41;20.20;99.90
736;DHT22;352;48.626;9.238;2023-07-16T05:03:08;20.20;99.90
736;DHT22;352;48.626;9.238;2023-07-16T05:05:35;20.30;99.90
736;DHT22;352;48.626;9.238;2023-07-16T05:08:01;20.20;99.90
736;DHT22;352;48.626;9.238;2023-07-16T05:10:28;20.30;99.90
736;DHT22;352;48.626;9.238;2023-07-16T05:13:02;20.30;99.90
736;DHT22;352;48.626;9.238;2023-07-16T05:15:29;20.20;99.90
736;DHT22;352;48.626;9.238;2023-07-16T05:17:55;20.20;99.90
736;DHT22;352;48.626;9.238;2023-07-16T05:20:23;20.20;99.90
736;DHT22;352;48.626;9.238;2023-07-16T05:22:50;20.20;99.90
736;DHT22;352;48.626;9.238;2023-07-16T05:25:17;20.20;99.90
736;DHT22;352;48.626;9.238;2023-07-16T05:27:44;20.20;99.90
736;DHT22;352;48.626;9.238;2023-07-16T05:30:12;20.30;99.90
736;DHT22;352;48.626;9.238;2023-07-16T05:32:40;20.30;99.90
736;DHT22;352;48.626;9.238;2023-07-16T05:35:07;20.30;99.90
736;DHT22;352;48.626;9.238;2023-07-16T05:37:34;20.30;99.90
736;DHT22;352;48.626;9.238;2023-07-16T05:40:00;20.30;99.90
736;DHT22;352;48.626;9.238;2023-07-16T05:42:28;20.30;99.90
736;DHT22;352;48.626;9.238;2023-07-16T05:44:55;20.40;99.90
736;DHT22;352;48.626;9.238;2023-07-16T05:47:23;20.40;99.90
736;DHT22;352;48.626;9.238;2023-07-16T05:49:50;20.40;99.90
736;DHT22;352;48.626;9.238;2023-07-16T05:52:16;20.50;99.90
736;DHT22;352;48.626;9.238;2023-07-16T05:54:43;20.50;99.90
736;DHT22;352;48.626;9.238;2023-07-16T05:57:10;20.60;99.90
736;DHT22;352;48.626;9.238;2023-07-16T05:59:37;20.60;99.90
736;DHT22;352;48.626;9.238;2023-07-16T06:02:05;20.70;99.90
736;DHT22;352;48.626;9.238;2023-07-16T06:04:33;20.70;99.90
736;DHT22;352;48.626;9.238;2023-07-16T06:07:00;20.70;99.90
736;DHT22;352;48.626;9.238;2023-07-16T06:09:26;20.70;99.90
736;DHT22;352;48.626;9.238;2023-07-16T06:11:53;20.60;99.90
736;DHT22;352;48.626;9.238;2023-07-16T06:14:20;20.60;99.90
736;DHT22;352;48.626;9.238;2023-07-16T06:16:47;20.60;99.90
736;DHT22;352;48.626;9.238;2023-07-16T06:19:14;20.50;99.90
736;DHT22;352;48.626;9.238;2023-07-16T06:21:42;20.50;99.90
736;DHT22;352;48.626;9.238;2023-07-16T06:24:08;20.60;99.90
736;DHT22;352;48.626;9.238;2023-07-16T06:26:35;20.50;99.90
736;DHT22;352;48.626;9.238;2023-07-16T06:29:02;20.50;99.90
736;DHT22;352;48.626;9.238;2023-07-16T06:31:29;20.50;99.90
736;DHT22;352;48.626;9.238;2023-07-16T06:33:55;20.50;99.90
736;DHT22;352;48.626;9.238;2023-07-16T06:36:22;20.50;99.90
736;DHT22;352;48.626;9.238;2023-07-16T06:38:50;20.50;99.90
736;DHT22;352;48.626;9.238;2023-07-16T06:41:18;20.50;99.90
736;DHT22;352;48.626;9.238;2023-07-16T06:43:44;20.50;99.90
736;DHT22;352;48.626;9.238;2023-07-16T06:46:11;20.50;99.90
736;DHT22;352;48.626;9.238;2023-07-16T06:48:38;20.50;99.90
736;DHT22;352;48.626;9.238;2023-07-16T06:51:04;20.60;99.90
736;DHT22;352;48.626;9.238;2023-07-16T06:53:32;20.70;99.90
736;DHT22;352;48.626;9.238;2023-07-16T06:56:00;20.70;99.90
736;DHT22;352;48.626;9.238;2023-07-16T06:58:31;20.90;99.90
736;DHT22;352;48.626;9.238;2023-07-16T07:00:58;21.20;99.90
736;DHT22;352;48.626;9.238;2023-07-16T07:03:25;21.60;99.90
736;DHT22;352;48.626;9.238;2023-07-16T07:05:52;21.90;99.90
736;DHT22;352;48.626;9.238;2023-07-16T07:08:18;22.20;99.90
736;DHT22;352;48.626;9.238;2023-07-16T07:10:46;22.70;99.90
736;DHT22;352;48.626;9.238;2023-07-16T07:13:17;23.30;99.90
736;DHT22;352;48.626;9.238;2023-07-16T07:15:44;23.90;99.90
736;DHT22;352;48.626;9.238;2023-07-16T07:18:11;24.40;99.90
736;DHT22;352;48.626;9.238;2023-07-16T07:20:39;24.80;99.90
736;DHT22;352;48.626;9.238;2023-07-16T07:23:06;25.20;99.90
736;DHT22;352;48.626;9.238;2023-07-16T07:25:33;25.60;99.90
736;DHT22;352;48.626;9.238;2023-07-16T07:28:00;25.90;99.90
736;DHT22;352;48.626;9.238;2023-07-16T07:30:28;26.20;99.90
736;DHT22;352;48.626;9.238;2023-07-16T07:32:55;26.30;99.90
736;DHT22;352;48.626;9.238;2023-07-16T07:35:21;26.30;99.90
736;DHT22;352;48.626;9.238;2023-07-16T07:37:48;26.30;99.90
736;DHT22;352;48.626;9.238;2023-07-16T07:40:15;26.50;99.90
736;DHT22;352;48.626;9.238;2023-07-16T07:42:42;26.70;99.90
736;DHT22;352;48.626;9.238;2023-07-16T07:45:10;27.00;99.90
736;DHT22;352;48.626;9.238;2023-07-16T07:47:38;27.20;99.90
736;DHT22;352;48.626;9.238;2023-07-16T07:50:05;27.60;99.90
736;DHT22;352;48.626;9.238;2023-07-16T07:52:32;27.80;99.90
736;DHT22;352;48.626;9.238;2023-07-16T07:54:59;27.80;99.50
736;DHT22;352;48.626;9.238;2023-07-16T07:57:26;27.80;99.60
736;DHT22;352;48.626;9.238;2023-07-16T07:59:52;27.80;99.40
736;DHT22;352;48.626;9.238;2023-07-16T08:02:22;27.70;98.00
736;DHT22;352;48.626;9.238;2023-07-16T08:04:51;27.80;97.20
736;DHT22;352;48.626;9.238;2023-07-16T08:07:18;27.90;97.40
736;DHT22;352;48.626;9.238;2023-07-16T08:09:45;28.10;99.60
736;DHT22;352;48.626;9.238;2023-07-16T08:12:12;28.10;98.10
736;DHT22;352;48.626;9.238;2023-07-16T08:14:39;28.30;96.50
736;DHT22;352;48.626;9.238;2023-07-16T08:17:07;28.30;96.00
736;DHT22;352;48.626;9.238;2023-07-16T08:19:33;28.30;97.40
736;DHT22;352;48.626;9.238;2023-07-16T08:22:02;28.10;93.90
736;DHT22;352;48.626;9.238;2023-07-16T08:24:28;28.20;97.60
736;DHT22;352;48.626;9.238;2023-07-16T08:26:55;28.50;96.60
736;DHT22;352;48.626;9.238;2023-07-16T08:29:22;28.60;93.40
736;DHT22;352;48.626;9.238;2023-07-16T08:31:48;28.30;94.30
736;DHT22;352;48.626;9.238;2023-07-16T08:34:15;28.10;97.30
736;DHT22;352;48.626;9.238;2023-07-16T08:36:42;28.30;94.80
736;DHT22;352;48.626;9.238;2023-07-16T08:39:10;28.20;94.30
736;DHT22;352;48.626;9.238;2023-07-16T08:41:38;28.30;96.00
736;DHT22;352;48.626;9.238;2023-07-16T08:44:05;28.40;92.10
736;DHT22;352;48.626;9.238;2023-07-16T08:46:32;28.50;95.90
736;DHT22;352;48.626;9.238;2023-07-16T08:48:59;28.40;95.00
736;DHT22;352;48.626;9.238;2023-07-16T08:51:27;28.10;92.40
736;DHT22;352;48.626;9.238;2023-07-16T08:53:54;28.00;95.80
736;DHT22;352;48.626;9.238;2023-07-16T08:56:22;27.70;96.50
736;DHT22;352;48.626;9.238;2023-07-16T08:58:49;27.40;96.90
736;DHT22;352;48.626;9.238;2023-07-16T09:01:16;27.30;97.80
736;DHT22;352;48.626;9.238;2023-07-16T09:03:43;27.10;97.30
736;DHT22;352;48.626;9.238;2023-07-16T09:06:10;27.00;98.00
736;DHT22;352;48.626;9.238;2023-07-16T09:08:37;26.90;99.40
736;DHT22;352;48.626;9.238;2023-07-16T09:11:04;26.90;98.30
736;DHT22;352;48.626;9.238;2023-07-16T09:13:32;27.00;98.00
736;DHT22;352;48.626;9.238;2023-07-16T09:15:59;27.40;98.80
736;DHT22;352;48.626;9.238;2023-07-16T09:18:27;27.80;93.40
736;DHT22;352;48.626;9.238;2023-07-16T09:20:57;28.50;94.60
736;DHT22;352;48.626;9.238;2023-07-16T09:23:26;29.10;92.90
736;DHT22;352;48.626;9.238;2023-07-16T09:25:53;29.70;88.60
736;DHT22;352;48.626;9.238;2023-07-16T09:28:20;30.20;92.00
736;DHT22;352;48.626;9.238;2023-07-16T09:30:49;30.20;88.00
736;DHT22;352;48.626;9.238;2023-07-16T09:33:17;30.30;88.30
736;DHT22;352;48.626;9.238;2023-07-16T09:35:48;30.30;87.70
736;DHT22;352;48.626;9.238;2023-07-16T09:38:15;30.50;86.10
736;DHT22;352;48.626;9.238;2023-07-16T09:40:43;30.60;87.80
736;DHT22;352;48.626;9.238;2023-07-16T09:43:11;30.80;85.40
736;DHT22;352;48.626;9.238;2023-07-16T09:45:38;31.20;87.80
736;DHT22;352;48.626;9.238;2023-07-16T09:48:06;31.10;77.90
736;DHT22;352;48.626;9.238;2023-07-16T09:50:34;31.20;79.10
736;DHT22;352;48.626;9.238;2023-07-16T09:53:03;31.30;84.30
736;DHT22;352;48.626;9.238;2023-07-16T09:55:32;31.00;78.20
736;DHT22;352;48.626;9.238;2023-07-16T09:58:01;31.20;84.50
736;DHT22;352;48.626;9.238;2023-07-16T10:00:29;31.50;82.50
736;DHT22;352;48.626;9.238;2023-07-16T10:02:57;31.80;74.80
736;DHT22;352;48.626;9.238;2023-07-16T10:05:27;31.90;77.30
736;DHT22;352;48.626;9.238;2023-07-16T10:07:55;31.90;80.90
736;DHT22;352;48.626;9.238;2023-07-16T10:10:26;31.60;82.30
736;DHT22;352;48.626;9.238;2023-07-16T10:12:56;31.20;80.80
736;DHT22;352;48.626;9.238;2023-07-16T10:15:27;30.70;83.40
736;DHT22;352;48.626;9.238;2023-07-16T10:17:54;30.20;84.50
736;DHT22;352;48.626;9.238;2023-07-16T10:20:30;29.80;82.80
736;DHT22;352;48.626;9.238;2023-07-16T10:22:57;29.70;86.70
736;DHT22;352;48.626;9.238;2023-07-16T10:25:25;29.70;86.10
736;DHT22;352;48.626;9.238;2023-07-16T10:27:53;29.80;88.10
736;DHT22;352;48.626;9.238;2023-07-16T10:30:20;30.10;85.40
736;DHT22;352;48.626;9.238;2023-07-16T10:32:50;30.30;83.40
736;DHT22;352;48.626;9.238;2023-07-16T10:35:16;30.50;84.20
736;DHT22;352;48.626;9.238;2023-07-16T10:37:45;30.80;78.50
736;DHT22;352;48.626;9.238;2023-07-16T10:40:13;30.80;74.50
736;DHT22;352;48.626;9.238;2023-07-16T10:42:41;30.60;69.70
736;DHT22;352;48.626;9.238;2023-07-16T10:45:09;30.60;71.50
736;DHT22;352;48.626;9.238;2023-07-16T10:47:39;30.80;72.80
736;DHT22;352;48.626;9.238;2023-07-16T10:50:07;31.00;78.70
736;DHT22;352;48.626;9.238;2023-07-16T10:52:35;31.00;81.00
736;DHT22;352;48.626;9.238;2023-07-16T10:55:03;31.00;80.20
736;DHT22;352;48.626;9.238;2023-07-16T10:57:30;30.80;78.00
736;DHT22;352;48.626;9.238;2023-07-16T10:59:58;30.50;75.60
736;DHT22;352;48.626;9.238;2023-07-16T11:02:26;30.50;72.90
736;DHT22;352;48.626;9.238;2023-07-16T11:04:53;30.50;74.30
736;DHT22;352;48.626;9.238;2023-07-16T11:07:21;30.80;80.20
736;DHT22;352;48.626;9.238;2023-07-16T11:09:49;30.70;76.40
736;DHT22;352;48.626;9.238;2023-07-16T11:12:19;30.90;78.90
736;DHT22;352;48.626;9.238;2023-07-16T11:14:47;31.10;72.20
736;DHT22;352;48.626;9.238;2023-07-16T11:17:15;31.20;79.30
736;DHT22;352;48.626;9.238;2023-07-16T11:19:46;31.00;78.00
736;DHT22;352;48.626;9.238;2023-07-16T11:22:14;30.80;76.60
736;DHT22;352;48.626;9.238;2023-07-16T11:24:43;30.60;80.00
736;DHT22;352;48.626;9.238;2023-07-16T11:27:14;30.30;76.20
736;DHT22;352;48.626;9.238;2023-07-16T11:29:46;30.20;81.70
736;DHT22;352;48.626;9.238;2023-07-16T11:32:14;30.10;79.10
736;DHT22;352;48.626;9.238;2023-07-16T11:34:53;30.10;78.40
736;DHT22;352;48.626;9.238;2023-07-16T11:37:20;30.30;81.90
736;DHT22;352;48.626;9.238;2023-07-16T11:39:47;30.50;78.60
736;DHT22;352;48.626;9.238;2023-07-16T11:42:17;30.60;75.70
736;DHT22;352;48.626;9.238;2023-07-16T11:44:50;30.40;70.90
736;DHT22;352;48.626;9.238;2023-07-16T11:47:17;30.10;70.30
736;DHT22;352;48.626;9.238;2023-07-16T11:49:44;29.90;70.90
736;DHT22;352;48.626;9.238;2023-07-16T11:52:10;30.00;77.80
736;DHT22;352;48.626;9.238;2023-07-16T11:54:37;29.70;73.50
736;DHT22;352;48.626;9.238;2023-07-16T11:57:04;29.60;73.20
736;DHT22;352;48.626;9.238;2023-07-16T11:59:31;29.60;75.00
736;DHT22;352;48.626;9.238;2023-07-16T12:01:59;29.50;73.30
736;DHT22;352;48.626;9.238;2023-07-16T12:04:26;29.30;73.10
736;DHT22;352;48.626;9.238;2023-07-16T12:06:53;29.40;75.30
736;DHT22;352;48.626;9.238;2023-07-16T12:09:20;29.60;75.70
736;DHT22;352;48.626;9.238;2023-07-16T12:11:46;29.60;72.80
736;DHT22;352;48.626;9.238;2023-07-16T12:14:13;29.60;73.40
736;DHT22;352;48.626;9.238;2023-07-16T12:16:40;29.70;73.00
736;DHT22;352;48.626;9.238;2023-07-16T12:19:09;29.80;71.30
736;DHT22;352;48.626;9.238;2023-07-16T12:21:36;29.80;73.70
736;DHT22;352;48.626;9.238;2023-07-16T12:24:03;29.80;70.90
736;DHT22;352;48.626;9.238;2023-07-16T12:26:30;29.60;70.10
736;DHT22;352;48.626;9.238;2023-07-16T12:28:56;29.40;70.80
736;DHT22;352;48.626;9.238;2023-07-16T12:31:23;29.30;70.70
736;DHT22;352;48.626;9.238;2023-07-16T12:33:50;29.20;72.50
736;DHT22;352;48.626;9.238;2023-07-16T12:36:18;29.30;75.50
736;DHT22;352;48.626;9.238;2023-07-16T12:38:45;29.30;71.40
736;DHT22;352;48.626;9.238;2023-07-16T12:41:12;29.30;72.90
736;DHT22;352;48.626;9.238;2023-07-16T12:43:40;29.30;74.40
736;DHT22;352;48.626;9.238;2023-07-16T12:46:07;29.20;71.70
736;DHT22;352;48.626;9.238;2023-07-16T12:48:34;29.20;73.60
736;DHT22;352;48.626;9.238;2023-07-16T12:51:01;29.10;71.10
736;DHT22;352;48.626;9.238;2023-07-16T12:53:29;29.10;73.60
736;DHT22;352;48.626;9.238;2023-07-16T12:55:56;28.90;71.10
736;DHT22;352;48.626;9.238;2023-07-16T12:58:23;28.80;71.90
736;DHT22;352;48.626;9.238;2023-07-16T13:00:50;28.90;75.20
736;DHT22;352;48.626;9.238;2023-07-16T13:03:16;28.90;73.30
736;DHT22;352;48.626;9.238;2023-07-16T13:05:44;29.00;75.60
736;DHT22;352;48.626;9.238;2023-07-16T13:08:10;28.90;71.70
736;DHT22;352;48.626;9.238;2023-07-16T13:10:39;29.00;76.00
736;DHT22;352;48.626;9.238;2023-07-16T13:13:06;29.00;72.60
736;DHT22;352;48.626;9.238;2023-07-16T13:15:33;29.00;71.30
736;DHT22;352;48.626;9.238;2023-07-16T13:18:00;29.00;74.80
736;DHT22;352;48.626;9.238;2023-07-16T13:20:28;28.90;73.10
736;DHT22;352;48.626;9.238;2023-07-16T13:22:55;28.90;72.10
736;DHT22;352;48.626;9.238;2023-07-16T13:25:22;28.80;72.70
736;DHT22;352;48.626;9.238;2023-07-16T13:27:50;28.90;72.40
736;DHT22;352;48.626;9.238;2023-07-16T13:30:18;28.80;75.20
736;DHT22;352;48.626;9.238;2023-07-16T13:32:45;28.80;72.70
736;DHT22;352;48.626;9.238;2023-07-16T13:35:14;28.90;75.40
736;DHT22;352;48.626;9.238;2023-07-16T13:37:40;29.00;76.30
736;DHT22;352;48.626;9.238;2023-07-16T13:40:08;29.00;74.00
736;DHT22;352;48.626;9.238;2023-07-16T13:42:34;28.90;75.50
736;DHT22;352;48.626;9.238;2023-07-16T13:45:03;28.70;74.20
736;DHT22;352;48.626;9.238;2023-07-16T13:47:30;28.60;74.90
736;DHT22;352;48.626;9.238;2023-07-16T13:49:57;28.50;74.10
736;DHT22;352;48.626;9.238;2023-07-16T13:52:23;28.40;73.90
736;DHT22;352;48.626;9.238;2023-07-16T13:54:50;28.30;75.40
736;DHT22;352;48.626;9.238;2023-07-16T13:57:17;28.20;75.40
736;DHT22;352;48.626;9.238;2023-07-16T13:59:43;28.10;75.20
736;DHT22;352;48.626;9.238;2023-07-16T14:02:11;27.90;74.90
736;DHT22;352;48.626;9.238;2023-07-16T14:04:38;27.80;75.30
736;DHT22;352;48.626;9.238;2023-07-16T14:07:05;27.70;75.40
736;DHT22;352;48.626;9.238;2023-07-16T14:09:31;27.70;75.00
736;DHT22;352;48.626;9.238;2023-07-16T14:11:58;27.70;74.80
736;DHT22;352;48.626;9.238;2023-07-16T14:14:25;27.60;75.60
736;DHT22;352;48.626;9.238;2023-07-16T14:16:52;27.60;76.70
736;DHT22;352;48.626;9.238;2023-07-16T14:19:21;27.60;75.70
736;DHT22;352;48.626;9.238;2023-07-16T14:21:47;27.60;77.80
736;DHT22;352;48.626;9.238;2023-07-16T14:24:14;27.60;80.20
736;DHT22;352;48.626;9.238;2023-07-16T14:26:41;27.70;83.00
736;DHT22;352;48.626;9.238;2023-07-16T14:29:07;27.90;75.90
736;DHT22;352;48.626;9.238;2023-07-16T14:31:36;28.00;77.50
736;DHT22;352;48.626;9.238;2023-07-16T14:34:04;28.10;78.40
736;DHT22;352;48.626;9.238;2023-07-16T14:36:32;28.20;77.30
736;DHT22;352;48.626;9.238;2023-07-16T14:38:59;28.30;83.70
736;DHT22;352;48.626;9.238;2023-07-16T14:41:25;28.40;75.10
736;DHT22;352;48.626;9.238;2023-07-16T14:43:52;28.50;81.60
736;DHT22;352;48.626;9.238;2023-07-16T14:46:19;28.60;77.50
736;DHT22;352;48.626;9.238;2023-07-16T14:48:46;28.50;77.20
736;DHT22;352;48.626;9.238;2023-07-16T14:51:13;28.60;81.90
736;DHT22;352;48.626;9.238;2023-07-16T14:53:41;28.50;78.20
736;DHT22;352;48.626;9.238;2023-07-16T14:56:08;28.40;78.70
736;DHT22;352;48.626;9.238;2023-07-16T14:58:34;28.40;80.20
736;DHT22;352;48.626;9.238;2023-07-16T15:01:02;28.40;84.90
736;DHT22;352;48.626;9.238;2023-07-16T15:03:33;28.30;81.80
736;DHT22;352;48.626;9.238;2023-07-16T15:06:00;28.40;81.90
736;DHT22;352;48.626;9.238;2023-07-16T15:08:26;28.30;85.00
736;DHT22;352;48.626;9.238;2023-07-16T15:10:56;28.30;81.90
736;DHT22;352;48.626;9.238;2023-07-16T15:13:24;28.30;81.50
736;DHT22;352;48.626;9.238;2023-07-16T15:15:53;28.30;81.30
736;DHT22;352;48.626;9.238;2023-07-16T15:18:20;28.20;83.00
736;DHT22;352;48.626;9.238;2023-07-16T15:20:47;28.20;81.50
736;DHT22;352;48.626;9.238;2023-07-16T15:23:13;28.10;84.70
736;DHT22;352;48.626;9.238;2023-07-16T15:25:41;28.00;84.20
736;DHT22;352;48.626;9.238;2023-07-16T15:28:10;28.00;83.60
736;DHT22;352;48.626;9.238;2023-07-16T15:30:37;27.90;82.30
736;DHT22;352;48.626;9.238;2023-07-16T15:33:04;27.80;82.50
736;DHT22;352;48.626;9.238;2023-07-16T15:35:30;27.70;83.40
736;DHT22;352;48.626;9.238;2023-07-16T15:37:57;27.60;77.20
736;DHT22;352;48.626;9.238;2023-07-16T15:40:25;27.50;84.00
736;DHT22;352;48.626;9.238;2023-07-16T15:42:52;27.50;81.90
736;DHT22;352;48.626;9.238;2023-07-16T15:45:20;27.40;80.10
736;DHT22;352;48.626;9.238;2023-07-16T15:47:47;27.40;83.40
736;DHT22;352;48.626;9.238;2023-07-16T15:50:16;27.40;81.20
736;DHT22;352;48.626;9.238;2023-07-16T15:52:43;27.40;81.20
736;DHT22;352;48.626;9.238;2023-07-16T15:55:10;27.40;83.10
736;DHT22;352;48.626;9.238;2023-07-16T15:57:36;27.40;77.70
736;DHT22;352;48.626;9.238;2023-07-16T16:00:04;27.30;76.50
736;DHT22;352;48.626;9.238;2023-07-16T16:02:35;27.30;82.30
736;DHT22;352;48.626;9.238;2023-07-16T16:05:02;27.30;82.30
736;DHT22;352;48.626;9.238;2023-07-16T16:07:31;27.30;79.30
736;DHT22;352;48.626;9.238;2023-07-16T16:09:58;27.30;81.00
736;DHT22;352;48.626;9.238;2023-07-16T16:12:24;27.30;85.20
736;DHT22;352;48.626;9.238;2023-07-16T16:14:51;27.30;80.00
736;DHT22;352;48.626;9.238;2023-07-16T16:17:18;27.30;76.60
736;DHT22;352;48.626;9.238;2023-07-16T16:19:46;27.30;79.60
736;DHT22;352;48.626;9.238;2023-07-16T16:22:13;27.40;77.70
736;DHT22;352;48.626;9.238;2023-07-16T16:24:39;27.40;77.00
736;DHT22;352;48.626;9.238;2023-07-16T16:27:07;27.40;78.80
736;DHT22;352;48.626;9.238;2023-07-16T16:29:33;27.30;74.90
736;DHT22;352;48.626;9.238;2023-07-16T16:32:00;27.30;79.20
736;DHT22;352;48.626;9.238;2023-07-16T16:34:29;27.30;81.70